createdAt,value
2022-08-02T00:00:25.952Z,99.99
2022-08-02T00:01:26.367Z,99.99
2022-08-02T00:02:26.665Z,99.99
2022-08-02T00:03:27.026Z,99.99
2022-08-02T00:04:27.409Z,99.99
2022-08-02T00:05:27.765Z,99.99
2022-08-02T00:06:28.145Z,99.99
2022-08-02T00:07:28.500Z,99.99
2022-08-02T00:08:28.857Z,99.99
2022-08-02T00:09:29.209Z,99.99
2022-08-02T00:10:30.629Z,99.99
2022-08-02T00:11:29.938Z,99.99
2022-08-02T00:12:30.281Z,99.99
2022-08-02T00:13:30.608Z,99.99
2022-08-02T00:14:30.982Z,99.99
2022-08-02T00:15:31.324Z,99.99
2022-08-02T00:16:38.202Z,99.99
2022-08-02T00:17:32.030Z,99.99
2022-08-02T00:18:32.494Z,99.99
2022-08-02T00:19:32.727Z,99.99
2022-08-02T00:20:33.055Z,99.99
2022-08-02T00:21:33.427Z,99.99
2022-08-02T00:22:33.773Z,99.99
2022-08-02T00:23:34.126Z,99.99
2022-08-02T00:24:34.474Z,99.99
2022-08-02T00:25:34.837Z,99.99
2022-08-02T00:26:35.222Z,99.99
2022-08-02T00:27:35.562Z,99.99
2022-08-02T00:28:35.953Z,99.99
2022-08-02T00:29:36.332Z,99.99
2022-08-02T00:30:36.686Z,99.99
2022-08-02T00:31:37.056Z,99.99
2022-08-02T00:32:37.421Z,99.99
2022-08-02T00:34:26.226Z,99.99
2022-08-02T00:34:38.254Z,99.99
2022-08-02T00:35:40.791Z,99.99
2022-08-02T00:36:38.854Z,99.99
2022-08-02T00:37:39.210Z,99.99
2022-08-02T00:38:39.546Z,99.99
2022-08-02T00:39:39.891Z,99.99
2022-08-02T00:40:40.253Z,99.99
2022-08-02T00:41:40.620Z,99.99
2022-08-02T00:42:41.012Z,99.99
2022-08-02T00:43:41.348Z,99.99
2022-08-02T00:44:41.703Z,99.99
2022-08-02T00:46:01.877Z,99.99
2022-08-02T00:46:42.477Z,99.99
2022-08-02T00:47:42.785Z,99.99
2022-08-02T00:48:43.408Z,99.99
2022-08-02T00:49:43.490Z,99.99
2022-08-02T00:50:43.853Z,99.99
2022-08-02T00:51:44.235Z,99.99
2022-08-02T00:52:44.604Z,99.99
2022-08-02T00:53:44.948Z,99.99
2022-08-02T00:54:45.331Z,99.99
2022-08-02T00:55:45.687Z,99.99
2022-08-02T00:56:49.834Z,99.99
2022-08-02T00:57:46.410Z,99.99
2022-08-02T00:58:46.771Z,99.99
2022-08-02T00:59:47.128Z,99.99
2022-08-02T01:00:47.455Z,99.99
2022-08-02T01:01:57.411Z,99.99
2022-08-02T01:02:48.143Z,99.99
2022-08-02T01:03:48.481Z,99.99
2022-08-02T01:04:48.882Z,99.99
2022-08-02T01:06:09.157Z,99.99
2022-08-02T01:06:49.651Z,99.99
2022-08-02T01:07:49.957Z,99.99
2022-08-02T01:08:50.272Z,99.99
2022-08-02T01:09:50.633Z,99.99
2022-08-02T01:10:50.979Z,99.99
2022-08-02T01:11:51.353Z,99.99
2022-08-02T01:12:51.708Z,99.99
2022-08-02T01:13:52.076Z,99.99
2022-08-02T01:14:52.453Z,99.99
2022-08-02T01:15:52.801Z,99.99
2022-08-02T01:16:53.157Z,99.99
2022-08-02T01:17:53.516Z,99.99
2022-08-02T01:18:53.865Z,99.99
2022-08-02T01:19:54.220Z,99.99
2022-08-02T01:20:54.587Z,99.99
2022-08-02T01:21:54.965Z,99.99
2022-08-02T01:23:03.074Z,99.99
2022-08-02T01:23:55.689Z,99.99
2022-08-02T01:24:56.040Z,99.99
2022-08-02T01:25:56.414Z,99.99
2022-08-02T01:26:56.786Z,99.99
2022-08-02T01:27:57.134Z,99.99
2022-08-02T01:28:57.550Z,99.99
2022-08-02T01:29:57.862Z,99.99
2022-08-02T01:30:58.229Z,99.99
2022-08-02T01:31:58.623Z,99.99
2022-08-02T01:32:58.933Z,99.99
2022-08-02T01:33:59.292Z,99.99
2022-08-02T01:34:59.661Z,99.99
2022-08-02T01:36:00.030Z,99.99
2022-08-02T01:37:00.411Z,99.99
2022-08-02T01:38:00.751Z,99.99
2022-08-02T01:39:01.112Z,99.99
2022-08-02T01:40:01.475Z,99.99
2022-08-02T01:41:01.827Z,99.99
2022-08-02T01:42:02.187Z,99.99
2022-08-02T01:43:08.512Z,99.99
2022-08-02T01:44:02.849Z,99.99
2022-08-02T01:45:03.186Z,99.99
2022-08-02T01:46:03.554Z,99.99
2022-08-02T01:47:03.924Z,99.99
2022-08-02T01:48:04.258Z,99.99
2022-08-02T01:49:04.618Z,99.99
2022-08-02T01:50:04.904Z,99.99
2022-08-02T01:51:05.289Z,99.99
2022-08-02T01:52:05.631Z,99.99
2022-08-02T01:53:05.966Z,99.99
2022-08-02T01:54:06.344Z,99.99
2022-08-02T01:55:06.678Z,99.99
2022-08-02T01:56:07.008Z,99.99
2022-08-02T01:57:07.411Z,99.99
2022-08-02T01:58:07.738Z,99.99
2022-08-02T01:59:08.148Z,99.99
2022-08-02T02:00:08.468Z,99.99
2022-08-02T02:01:08.832Z,99.99
2022-08-02T02:02:09.604Z,99.99
2022-08-02T02:03:09.509Z,99.99
2022-08-02T02:04:09.902Z,99.99
2022-08-02T02:05:10.253Z,99.99
2022-08-02T02:06:10.582Z,99.99
2022-08-02T02:07:11.029Z,99.99
2022-08-02T02:08:11.329Z,99.99
2022-08-02T02:09:11.641Z,99.99
2022-08-02T02:10:11.982Z,99.99
2022-08-02T02:12:12.050Z,99.99
2022-08-02T02:12:18.591Z,99.99
2022-08-02T02:13:13.031Z,99.99
2022-08-02T02:14:13.358Z,99.99
2022-08-02T02:15:13.727Z,99.99
2022-08-02T02:16:14.050Z,99.99
2022-08-02T02:18:10.497Z,99.99
2022-08-02T02:18:16.774Z,99.99
2022-08-02T02:19:20.967Z,99.99
2022-08-02T02:20:15.508Z,99.99
2022-08-02T02:21:15.869Z,99.99
2022-08-02T02:22:16.336Z,99.99
2022-08-02T02:23:16.612Z,99.99
2022-08-02T02:24:16.944Z,99.99
2022-08-02T02:25:17.285Z,99.99
2022-08-02T02:26:17.634Z,99.99
2022-08-02T02:27:17.969Z,99.99
2022-08-02T02:28:18.313Z,99.99
2022-08-02T02:29:18.691Z,99.99
2022-08-02T02:30:18.979Z,99.99
2022-08-02T02:31:19.318Z,99.99
2022-08-02T02:32:19.661Z,99.99
2022-08-02T02:33:20.002Z,99.99
2022-08-02T02:34:20.329Z,99.99
2022-08-02T02:35:20.666Z,99.99
2022-08-02T02:36:21.023Z,99.99
2022-08-02T02:37:21.350Z,99.99
2022-08-02T02:38:21.732Z,99.99
2022-08-02T02:39:22.072Z,99.99
2022-08-02T02:40:22.394Z,99.99
2022-08-02T02:41:22.775Z,99.99
2022-08-02T02:42:23.136Z,99.99
2022-08-02T02:43:23.491Z,99.99
2022-08-02T02:44:23.828Z,99.99
2022-08-02T02:45:24.160Z,99.99
2022-08-02T02:46:24.489Z,99.99
2022-08-02T02:47:41.167Z,99.99
2022-08-02T02:48:25.369Z,99.99
2022-08-02T02:49:25.688Z,99.99
2022-08-02T02:50:25.981Z,99.99
2022-08-02T02:51:26.329Z,99.99
2022-08-02T02:52:26.706Z,99.99
2022-08-02T02:53:27.051Z,99.99
2022-08-02T02:54:34.901Z,99.99
2022-08-02T02:55:27.440Z,99.99
2022-08-02T02:56:27.736Z,99.99
2022-08-02T02:57:28.008Z,99.99
2022-08-02T02:58:28.976Z,99.99
2022-08-02T02:59:28.667Z,99.99
2022-08-02T03:00:29.035Z,99.99
2022-08-02T03:01:55.202Z,99.99
2022-08-02T03:02:29.549Z,99.99
2022-08-02T03:03:29.864Z,99.99
2022-08-02T03:04:55.162Z,99.99
2022-08-02T03:05:30.429Z,99.99
2022-08-02T03:06:30.747Z,99.99
2022-08-02T03:07:31.003Z,99.99
2022-08-02T03:08:31.296Z,99.99
2022-08-02T03:09:31.585Z,99.99
2022-08-02T03:10:31.871Z,99.99
2022-08-02T03:11:32.234Z,99.99
2022-08-02T03:12:32.629Z,99.99
2022-08-02T03:13:33.233Z,99.99
2022-08-02T03:14:32.644Z,99.99
2022-08-02T03:15:32.802Z,99.99
2022-08-02T03:16:33.160Z,99.99
2022-08-02T03:17:33.269Z,99.99
2022-08-02T03:18:33.567Z,99.99
2022-08-02T03:19:33.739Z,99.99
2022-08-02T03:20:33.882Z,99.99
2022-08-02T03:21:34.198Z,99.99
2022-08-02T03:22:34.478Z,99.99
2022-08-02T03:23:34.671Z,99.99
2022-08-02T03:24:34.810Z,99.99
2022-08-02T03:25:35.001Z,99.99
2022-08-02T03:26:35.263Z,99.99
2022-08-02T03:27:35.423Z,99.99
2022-08-02T03:28:35.749Z,99.99
2022-08-02T03:29:35.899Z,99.99
2022-08-02T03:30:36.066Z,99.99
2022-08-02T03:31:36.238Z,99.99
2022-08-02T03:32:36.405Z,99.99
2022-08-02T03:33:36.584Z,99.99
2022-08-02T03:34:36.740Z,99.99
2022-08-02T03:35:36.931Z,99.99
2022-08-02T03:36:37.093Z,99.99
2022-08-02T03:37:37.392Z,99.99
2022-08-02T03:38:37.679Z,99.99
2022-08-02T03:39:37.828Z,99.99
2022-08-02T03:40:38.002Z,99.99
2022-08-02T03:41:38.297Z,99.99
2022-08-02T03:42:38.599Z,99.99
2022-08-02T03:43:38.905Z,99.99
2022-08-02T03:44:39.184Z,99.99
2022-08-02T03:45:39.482Z,99.99
2022-08-02T03:46:39.779Z,99.99
2022-08-02T03:47:40.073Z,99.99
2022-08-02T03:48:40.312Z,99.99
2022-08-02T03:49:40.605Z,99.99
2022-08-02T03:50:40.849Z,99.99
2022-08-02T03:51:41.186Z,99.99
2022-08-02T03:52:41.341Z,99.99
2022-08-02T03:53:41.646Z,99.99
2022-08-02T03:54:45.713Z,99.99
2022-08-02T03:55:42.104Z,99.99
2022-08-02T03:56:42.404Z,99.99
2022-08-02T03:57:42.707Z,99.99
2022-08-02T03:58:47.133Z,99.99
2022-08-02T03:59:43.278Z,99.99
2022-08-02T04:00:43.612Z,99.99
2022-08-02T04:01:43.801Z,99.99
2022-08-02T04:02:44.048Z,99.99
2022-08-02T04:03:44.409Z,99.99
2022-08-02T04:04:44.534Z,99.99
2022-08-02T04:06:03.258Z,99.99
2022-08-02T04:06:45.048Z,99.99
2022-08-02T04:08:35.119Z,99.99
2022-08-02T04:08:45.635Z,99.99
2022-08-02T04:09:45.768Z,99.99
2022-08-02T04:10:45.961Z,99.99
2022-08-02T04:11:46.296Z,99.99
2022-08-02T04:12:46.451Z,99.99
2022-08-02T04:13:46.749Z,99.99
2022-08-02T04:14:47.031Z,99.99
2022-08-02T04:15:47.321Z,99.99
2022-08-02T04:16:47.635Z,99.99
2022-08-02T04:17:47.935Z,99.99
2022-08-02T04:18:48.230Z,99.99
2022-08-02T04:19:48.562Z,99.99
2022-08-02T04:20:48.783Z,99.99
2022-08-02T04:21:51.782Z,99.99
2022-08-02T04:22:49.371Z,99.99
2022-08-02T04:23:49.681Z,99.99
2022-08-02T04:24:49.997Z,99.99
2022-08-02T04:25:51.506Z,99.99
2022-08-02T04:26:50.325Z,99.99
2022-08-02T04:28:16.579Z,99.99
2022-08-02T04:28:50.946Z,99.99
2022-08-02T04:29:51.107Z,99.99
2022-08-02T04:30:51.414Z,99.99
2022-08-02T04:31:51.684Z,99.99
2022-08-02T04:32:51.868Z,99.99
2022-08-02T04:33:52.072Z,99.99
2022-08-02T04:35:18.152Z,99.99
2022-08-02T04:35:55.426Z,99.99
2022-08-02T04:36:52.706Z,99.99
2022-08-02T04:38:09.002Z,99.99
2022-08-02T04:38:53.072Z,99.99
2022-08-02T04:39:53.209Z,99.99
2022-08-02T04:40:53.388Z,99.99
2022-08-02T04:41:57.595Z,99.99
2022-08-02T04:42:53.763Z,99.99
2022-08-02T04:43:53.982Z,99.99
2022-08-02T04:44:54.103Z,99.99
2022-08-02T04:45:54.302Z,99.99
2022-08-02T04:46:54.611Z,99.99
2022-08-02T04:48:04.679Z,99.99
2022-08-02T04:48:55.073Z,99.99
2022-08-02T04:49:55.164Z,99.99
2022-08-02T04:50:55.388Z,99.99
2022-08-02T04:51:55.604Z,99.99
2022-08-02T04:52:55.760Z,99.99
2022-08-02T04:53:55.976Z,99.01
2022-08-02T04:54:56.160Z,97.69
2022-08-02T04:55:56.330Z,96.36
2022-08-02T04:56:56.531Z,95.60
2022-08-02T04:57:56.717Z,93.37
2022-08-02T04:58:56.953Z,91.46
2022-08-02T04:59:57.113Z,88.02
2022-08-02T05:00:57.383Z,85.60
2022-08-02T05:01:57.501Z,82.81
2022-08-02T05:02:57.703Z,82.12
2022-08-02T05:03:57.870Z,80.77
2022-08-02T05:04:58.055Z,79.88
2022-08-02T05:05:58.244Z,78.63
2022-08-02T05:06:58.435Z,76.77
2022-08-02T05:07:58.619Z,76.12
2022-08-02T05:08:58.824Z,75.79
2022-08-02T05:09:58.990Z,75.45
2022-08-02T05:10:59.147Z,74.57
2022-08-02T05:11:59.343Z,72.51
2022-08-02T05:12:59.539Z,71.97
2022-08-02T05:13:59.772Z,71.10
2022-08-02T05:14:59.925Z,71.91
2022-08-02T05:16:00.119Z,71.80
2022-08-02T05:17:00.346Z,72.21
2022-08-02T05:18:00.551Z,71.84
2022-08-02T05:19:00.934Z,71.94
2022-08-02T05:20:00.874Z,73.79
2022-08-02T05:21:01.070Z,72.95
2022-08-02T05:22:01.267Z,72.85
2022-08-02T05:23:01.458Z,72.21
2022-08-02T05:24:01.667Z,72.51
2022-08-02T05:25:01.859Z,71.87
2022-08-02T05:26:02.042Z,71.57
2022-08-02T05:27:02.220Z,71.03
2022-08-02T05:28:02.406Z,70.39
2022-08-02T05:29:02.610Z,69.85
2022-08-02T05:30:02.763Z,68.85
2022-08-02T05:31:02.970Z,68.71
2022-08-02T05:32:03.156Z,68.51
2022-08-02T05:33:03.351Z,69.21
2022-08-02T05:34:03.553Z,68.34
2022-08-02T05:35:03.710Z,68.41
2022-08-02T05:36:03.900Z,68.95
2022-08-02T05:37:04.081Z,68.81
2022-08-02T05:38:04.263Z,69.05
2022-08-02T05:39:05.134Z,69.38
2022-08-02T05:40:04.652Z,69.55
2022-08-02T05:41:04.855Z,69.38
2022-08-02T05:42:05.036Z,69.28
2022-08-02T05:43:05.223Z,69.28
2022-08-02T05:44:05.455Z,69.48
2022-08-02T05:45:05.698Z,69.68
2022-08-02T05:46:05.800Z,68.61
2022-08-02T05:47:05.986Z,67.88
2022-08-02T05:48:06.183Z,67.47
2022-08-02T05:49:06.502Z,67.64
2022-08-02T05:50:06.582Z,67.71
2022-08-02T05:51:06.772Z,67.21
2022-08-02T05:52:06.949Z,66.07
2022-08-02T05:53:07.143Z,66.17
2022-08-02T05:54:07.357Z,66.30
2022-08-02T05:55:07.513Z,65.84
2022-08-02T05:56:08.746Z,65.90
2022-08-02T05:57:07.858Z,67.21
2022-08-02T05:58:08.059Z,66.17
2022-08-02T05:59:08.280Z,65.33
2022-08-02T06:00:08.437Z,65.77
2022-08-02T06:01:08.631Z,65.20
2022-08-02T06:02:09.229Z,65.00
2022-08-02T06:03:09.029Z,64.47
2022-08-02T06:04:09.241Z,63.76
2022-08-02T06:05:09.428Z,63.23
2022-08-02T06:06:09.655Z,63.46
2022-08-02T06:07:09.815Z,64.37
2022-08-02T06:08:09.980Z,63.76
2022-08-02T06:09:10.189Z,62.90
2022-08-02T06:10:10.346Z,63.06
2022-08-02T06:11:10.538Z,63.17
2022-08-02T06:12:10.727Z,63.23
2022-08-02T06:13:14.538Z,62.90
2022-08-02T06:14:11.130Z,62.77
2022-08-02T06:15:11.295Z,61.74
2022-08-02T06:16:14.183Z,63.20
2022-08-02T06:17:11.687Z,63.46
2022-08-02T06:18:11.923Z,63.87
2022-08-02T06:19:12.096Z,64.17
2022-08-02T06:20:12.250Z,63.53
2022-08-02T06:22:35.577Z,64.17
2022-08-02T06:22:41.561Z,64.74
2022-08-02T06:23:13.868Z,64.34
2022-08-02T06:24:13.036Z,64.37
2022-08-02T06:25:51.238Z,64.80
2022-08-02T06:26:13.409Z,65.73
2022-08-02T06:27:13.596Z,67.00
2022-08-02T06:28:13.787Z,68.15
2022-08-02T06:29:14.009Z,69.21
2022-08-02T06:30:14.149Z,71.10
2022-08-02T06:31:14.338Z,72.64
2022-08-02T06:32:14.924Z,72.78
2022-08-02T06:33:14.712Z,73.93
2022-08-02T06:34:14.879Z,76.08
2022-08-02T06:35:15.067Z,76.02
2022-08-02T06:36:15.263Z,76.56
2022-08-02T06:37:15.459Z,77.30
2022-08-02T06:38:15.626Z,77.91
2022-08-02T06:39:15.839Z,77.71
2022-08-02T06:40:16.025Z,78.62
2022-08-02T06:41:16.219Z,78.42
2022-08-02T06:42:16.408Z,78.52
2022-08-02T06:43:16.596Z,79.22
2022-08-02T06:45:16.997Z,79.06
2022-08-02T06:47:09.386Z,79.73
2022-08-02T06:47:17.382Z,79.53
2022-08-02T06:48:17.572Z,79.93
2022-08-02T06:49:17.862Z,79.63
2022-08-02T06:50:17.945Z,78.92
2022-08-02T06:51:18.148Z,79.13
2022-08-02T06:52:19.249Z,79.43
2022-08-02T06:53:18.530Z,79.53
2022-08-02T06:54:18.775Z,78.92
2022-08-02T06:55:18.917Z,79.43
2022-08-02T06:56:19.113Z,79.69
2022-08-02T06:57:19.310Z,78.48
2022-08-02T06:58:19.500Z,78.88
2022-08-02T06:59:19.713Z,79.08
2022-08-02T07:00:19.866Z,78.48
2022-08-02T07:01:20.100Z,78.68
2022-08-02T07:02:20.230Z,78.48
2022-08-02T07:03:20.427Z,78.99
2022-08-02T07:04:20.655Z,78.24
2022-08-02T07:05:20.804Z,77.33
2022-08-02T07:06:21.001Z,78.14
2022-08-02T07:07:21.187Z,77.33
2022-08-02T07:08:21.377Z,77.50
2022-08-02T07:09:22.304Z,77.33
2022-08-02T07:10:21.768Z,77.80
2022-08-02T07:11:21.954Z,76.89
2022-08-02T07:12:22.146Z,75.98
2022-08-02T07:13:22.323Z,76.08
2022-08-02T07:14:22.544Z,75.98
2022-08-02T07:15:22.695Z,76.39
2022-08-02T07:16:22.894Z,76.04
2022-08-02T07:17:23.084Z,75.04
2022-08-02T07:18:23.282Z,74.93
2022-08-02T07:19:27.382Z,75.13
2022-08-02T07:20:23.738Z,75.20
2022-08-02T07:21:56.523Z,75.71
2022-08-02T07:22:24.043Z,74.29
2022-08-02T07:23:24.235Z,73.99
2022-08-02T07:24:24.414Z,73.69
2022-08-02T07:25:24.604Z,73.79
2022-08-02T07:26:24.793Z,73.79
2022-08-02T07:27:25.007Z,74.09
2022-08-02T07:28:25.195Z,73.96
2022-08-02T07:29:25.425Z,73.75
2022-08-02T07:30:25.569Z,73.15
2022-08-02T07:31:25.763Z,73.05
2022-08-02T07:32:25.927Z,72.34
2022-08-02T07:33:37.922Z,72.14
2022-08-02T07:34:26.346Z,73.08
2022-08-02T07:35:26.501Z,73.75
2022-08-02T07:36:26.696Z,73.96
2022-08-02T07:37:53.847Z,73.75
2022-08-02T07:38:27.100Z,73.22
2022-08-02T07:39:27.271Z,73.32
2022-08-02T07:40:27.464Z,72.51
2022-08-02T07:41:27.656Z,72.54
2022-08-02T07:42:27.868Z,73.32
2022-08-02T07:43:28.032Z,73.22
2022-08-02T07:44:28.239Z,72.91
2022-08-02T07:45:28.431Z,71.77
2022-08-02T07:46:28.684Z,70.97
2022-08-02T07:47:28.830Z,71.17
2022-08-02T07:48:29.030Z,70.76
2022-08-02T07:49:29.368Z,71.26
2022-08-02T07:50:29.427Z,70.36
2022-08-02T07:51:29.605Z,71.23
2022-08-02T07:52:29.798Z,70.73
2022-08-02T07:53:49.995Z,71.33
2022-08-02T07:54:30.189Z,71.33
2022-08-02T07:55:35.193Z,70.83
2022-08-02T07:56:30.543Z,70.29
2022-08-02T07:57:30.740Z,70.90
2022-08-02T07:58:30.892Z,70.90
2022-08-02T07:59:31.101Z,70.90
2022-08-02T08:00:31.248Z,71.20
2022-08-02T08:01:31.509Z,70.19
2022-08-02T08:02:31.592Z,70.22
2022-08-02T08:03:31.791Z,71.13
2022-08-02T08:04:32.001Z,70.90
2022-08-02T08:05:32.154Z,70.59
2022-08-02T08:06:32.333Z,70.50
2022-08-02T08:07:32.526Z,70.19
2022-08-02T08:08:32.722Z,70.62
2022-08-02T08:09:32.921Z,71.10
2022-08-02T08:10:33.107Z,70.39
2022-08-02T08:11:33.319Z,69.99
2022-08-02T08:12:33.502Z,70.36
2022-08-02T08:13:33.695Z,69.65
2022-08-02T08:14:33.917Z,69.56
2022-08-02T08:15:34.077Z,70.56
2022-08-02T08:16:34.267Z,70.06
2022-08-02T08:17:34.466Z,70.93
2022-08-02T08:18:34.636Z,70.12
2022-08-02T08:19:50.247Z,69.62
2022-08-02T08:20:35.037Z,69.18
2022-08-02T08:21:35.214Z,68.88
2022-08-02T08:22:35.414Z,68.59
2022-08-02T08:23:35.611Z,68.62
2022-08-02T08:24:35.798Z,69.59
2022-08-02T08:25:39.824Z,70.09
2022-08-02T08:26:36.163Z,68.08
2022-08-02T08:27:36.355Z,68.59
2022-08-02T08:28:36.564Z,68.85
2022-08-02T08:29:36.773Z,67.85
2022-08-02T08:30:36.979Z,67.04
2022-08-02T08:31:37.168Z,66.84
2022-08-02T08:32:37.369Z,66.84
2022-08-02T08:33:37.561Z,67.24
2022-08-02T08:34:37.771Z,67.88
2022-08-02T08:35:37.922Z,68.48
2022-08-02T08:36:38.098Z,68.18
2022-08-02T08:37:38.296Z,68.59
2022-08-02T08:38:38.498Z,68.55
2022-08-02T08:39:56.511Z,68.41
2022-08-02T08:40:38.901Z,67.01
2022-08-02T08:41:39.058Z,65.41
2022-08-02T08:42:39.255Z,64.17
2022-08-02T08:43:39.437Z,62.96
2022-08-02T08:44:39.646Z,61.33
2022-08-02T08:45:39.794Z,61.22
2022-08-02T08:46:40.020Z,61.52
2022-08-02T08:47:40.174Z,61.63
2022-08-02T08:48:40.356Z,61.63
2022-08-02T08:49:52.854Z,61.72
2022-08-02T08:50:40.738Z,61.60
2022-08-02T08:51:40.961Z,60.81
2022-08-02T08:52:41.124Z,59.95
2022-08-02T08:53:41.321Z,59.32
2022-08-02T08:54:41.489Z,58.97
2022-08-02T08:55:41.647Z,57.26
2022-08-02T08:56:41.835Z,57.21
2022-08-02T08:57:42.040Z,56.37
2022-08-02T08:58:42.227Z,56.74
2022-08-02T08:59:42.468Z,56.41
2022-08-02T09:00:42.625Z,55.39
2022-08-02T09:01:50.504Z,55.86
2022-08-02T09:02:43.008Z,54.76
2022-08-02T09:03:43.196Z,54.39
2022-08-02T09:04:43.417Z,54.16
2022-08-02T09:05:43.605Z,53.27
2022-08-02T09:06:43.793Z,53.44
2022-08-02T09:07:43.983Z,53.11
2022-08-02T09:08:44.174Z,52.34
2022-08-02T09:09:44.387Z,52.32
2022-08-02T09:10:44.553Z,52.62
2022-08-02T09:11:44.737Z,53.66
2022-08-02T09:12:44.921Z,53.41
2022-08-02T09:13:46.202Z,53.81
2022-08-02T09:14:45.310Z,53.06
2022-08-02T09:15:45.493Z,52.19
2022-08-02T09:16:45.666Z,53.09
2022-08-02T09:17:45.831Z,54.32
2022-08-02T09:18:46.954Z,54.39
2022-08-02T09:19:46.596Z,54.46
2022-08-02T09:20:46.402Z,54.11
2022-08-02T09:21:46.595Z,52.84
2022-08-02T09:22:46.787Z,53.54
2022-08-02T09:23:46.983Z,53.22
2022-08-02T09:24:47.197Z,53.69
2022-08-02T09:25:58.928Z,51.35
2022-08-02T09:26:47.551Z,51.15
2022-08-02T09:27:47.756Z,51.77
2022-08-02T09:28:48.016Z,53.61
2022-08-02T09:30:11.737Z,53.22
2022-08-02T09:30:48.326Z,52.39
2022-08-02T09:31:49.923Z,51.79
2022-08-02T09:32:48.719Z,52.32
2022-08-02T09:33:48.936Z,52.27
2022-08-02T09:34:49.140Z,51.72
2022-08-02T09:36:06.635Z,50.55
2022-08-02T09:36:54.748Z,50.50
2022-08-02T09:37:49.767Z,50.48
2022-08-02T09:38:49.965Z,50.35
2022-08-02T09:39:50.150Z,48.89
2022-08-02T09:40:50.364Z,50.01
2022-08-02T09:41:50.554Z,51.20
2022-08-02T09:42:50.738Z,49.88
2022-08-02T09:44:04.049Z,49.31
2022-08-02T09:44:51.157Z,49.68
2022-08-02T09:45:51.346Z,49.51
2022-08-02T09:46:51.530Z,50.93
2022-08-02T09:47:51.736Z,50.70
2022-08-02T09:48:52.787Z,49.84
2022-08-02T09:49:52.586Z,48.50
2022-08-02T09:50:52.310Z,48.52
2022-08-02T09:51:52.493Z,49.96
2022-08-02T09:52:52.682Z,47.89
2022-08-02T09:54:05.991Z,47.52
2022-08-02T09:54:53.101Z,48.81
2022-08-02T09:55:53.261Z,50.27
2022-08-02T09:56:53.454Z,52.32
2022-08-02T09:57:53.647Z,52.34
2022-08-02T09:58:53.836Z,52.22
2022-08-02T09:59:54.036Z,51.79
2022-08-02T10:00:54.347Z,52.54
2022-08-02T10:02:01.948Z,51.72
2022-08-02T10:02:54.642Z,49.68
2022-08-02T10:03:54.842Z,48.86
2022-08-02T10:04:55.045Z,48.77
2022-08-02T10:05:56.126Z,48.05
2022-08-02T10:06:55.450Z,47.67
2022-08-02T10:07:55.636Z,48.37
2022-08-02T10:08:55.825Z,48.27
2022-08-02T10:09:56.051Z,48.54
2022-08-02T10:10:56.249Z,48.25
2022-08-02T10:11:56.437Z,47.45
2022-08-02T10:12:56.628Z,47.67
2022-08-02T10:13:56.819Z,48.37
2022-08-02T10:14:57.037Z,48.44
2022-08-02T10:15:57.185Z,48.47
2022-08-02T10:16:57.379Z,48.77
2022-08-02T10:17:57.554Z,48.14
2022-08-02T10:18:57.811Z,46.44
2022-08-02T10:20:03.298Z,46.34
2022-08-02T10:20:58.171Z,45.05
2022-08-02T10:21:58.361Z,45.47
2022-08-02T10:22:58.551Z,44.63
2022-08-02T10:23:58.740Z,44.11
2022-08-02T10:24:58.938Z,44.59
2022-08-02T10:26:00.279Z,44.17
2022-08-02T10:26:59.354Z,43.55
2022-08-02T10:28:06.738Z,44.05
2022-08-02T10:28:59.776Z,45.45
2022-08-02T10:30:00.001Z,45.20
2022-08-02T10:31:00.173Z,44.06
2022-08-02T10:32:00.362Z,45.76
2022-08-02T10:33:00.561Z,47.20
2022-08-02T10:34:00.775Z,46.28
2022-08-02T10:35:02.701Z,45.68
2022-08-02T10:36:06.836Z,45.39
2022-08-02T10:37:01.386Z,44.55
2022-08-02T10:38:01.784Z,42.94
2022-08-02T10:39:01.807Z,44.81
2022-08-02T10:40:02.021Z,47.99
2022-08-02T10:41:02.211Z,50.03
2022-08-02T10:42:02.398Z,49.08
2022-08-02T10:43:02.578Z,47.28
2022-08-02T10:44:02.784Z,46.58
2022-08-02T10:45:02.982Z,46.95
2022-08-02T10:46:03.171Z,45.09
2022-08-02T10:47:03.361Z,45.68
2022-08-02T10:48:03.625Z,46.06
2022-08-02T10:49:24.004Z,45.45
2022-08-02T10:50:04.064Z,45.05
2022-08-02T10:51:04.169Z,44.37
2022-08-02T10:52:04.394Z,45.39
2022-08-02T10:53:04.581Z,44.99
2022-08-02T10:54:04.770Z,45.49
2022-08-02T10:55:05.107Z,45.47
2022-08-02T10:56:05.178Z,45.05
2022-08-02T10:57:05.362Z,43.96
2022-08-02T10:58:05.549Z,43.76
2022-08-02T10:59:05.761Z,42.99
2022-08-02T11:00:05.964Z,42.77
2022-08-02T11:01:06.342Z,42.25
2022-08-02T11:02:06.358Z,44.20
2022-08-02T11:03:06.541Z,45.43
2022-08-02T11:04:10.252Z,47.13
2022-08-02T11:05:07.005Z,45.68
2022-08-02T11:06:07.191Z,45.15
2022-08-02T11:07:07.417Z,44.71
2022-08-02T11:08:07.628Z,43.24
2022-08-02T11:09:07.840Z,43.26
2022-08-02T11:10:08.061Z,42.77
2022-08-02T11:11:08.247Z,43.14
2022-08-02T11:12:08.463Z,42.41
2022-08-02T11:13:08.622Z,41.00
2022-08-02T11:14:08.828Z,41.57
2022-08-02T11:15:09.008Z,41.67
2022-08-02T11:16:11.885Z,42.68
2022-08-02T11:17:09.399Z,43.08
2022-08-02T11:18:09.583Z,42.49
2022-08-02T11:19:09.782Z,43.06
2022-08-02T11:20:09.996Z,44.37
2022-08-02T11:21:10.153Z,44.19
2022-08-02T11:22:10.650Z,43.49
2022-08-02T11:23:10.521Z,43.60
2022-08-02T11:24:10.727Z,43.99
2022-08-02T11:25:10.928Z,43.91
2022-08-02T11:26:11.570Z,43.98
2022-08-02T11:27:11.326Z,44.85
2022-08-02T11:28:11.516Z,45.23
2022-08-02T11:29:15.845Z,45.16
2022-08-02T11:30:11.925Z,43.55
2022-08-02T11:31:12.143Z,42.49
2022-08-02T11:32:12.440Z,43.57
2022-08-02T11:33:12.506Z,43.67
2022-08-02T11:34:36.410Z,44.35
2022-08-02T11:35:12.955Z,43.24
2022-08-02T11:36:13.124Z,42.43
2022-08-02T11:37:13.341Z,38.05
2022-08-02T11:38:13.523Z,39.97
2022-08-02T11:39:15.729Z,40.86
2022-08-02T11:40:19.340Z,41.00
2022-08-02T11:41:14.157Z,41.55
2022-08-02T11:42:14.768Z,40.86
2022-08-02T11:43:14.546Z,41.93
2022-08-02T11:44:14.733Z,42.01
2022-08-02T11:45:21.142Z,41.31
2022-08-02T11:46:15.168Z,40.09
2022-08-02T11:47:15.327Z,39.91
2022-08-02T11:48:15.529Z,41.10
2022-08-02T11:49:15.816Z,40.17
2022-08-02T11:50:15.969Z,39.89
2022-08-02T11:51:16.129Z,39.95
2022-08-02T11:52:16.558Z,40.03
2022-08-02T11:53:16.532Z,39.50
2022-08-02T11:54:16.708Z,39.34
2022-08-02T11:55:16.911Z,39.83
2022-08-02T11:56:21.836Z,40.53
2022-08-02T11:57:20.200Z,41.25
2022-08-02T11:58:17.518Z,41.28
2022-08-02T11:59:17.721Z,42.23
2022-08-02T12:00:17.924Z,42.63
2022-08-02T12:01:18.123Z,43.04
2022-08-02T12:02:18.660Z,41.93
2022-08-02T12:03:19.903Z,42.82
2022-08-02T12:04:18.731Z,42.78
2022-08-02T12:05:18.931Z,41.65
2022-08-02T12:06:19.106Z,41.12
2022-08-02T12:07:19.321Z,39.81
2022-08-02T12:08:22.157Z,40.33
2022-08-02T12:09:19.728Z,41.44
2022-08-02T12:10:19.929Z,41.33
2022-08-02T12:11:20.104Z,39.59
2022-08-02T12:12:20.313Z,40.45
2022-08-02T12:13:20.513Z,40.05
2022-08-02T12:14:20.720Z,39.06
2022-08-02T12:15:20.947Z,39.77
2022-08-02T12:16:21.104Z,41.02
2022-08-02T12:17:21.296Z,41.00
2022-08-02T12:18:21.507Z,40.56
2022-08-02T12:19:21.656Z,40.31
2022-08-02T12:20:21.866Z,40.72
2022-08-02T12:21:22.054Z,41.22
2022-08-02T12:22:24.405Z,40.50
2022-08-02T12:23:22.467Z,40.07
2022-08-02T12:24:22.649Z,39.97
2022-08-02T12:25:34.478Z,39.56
2022-08-02T12:26:23.027Z,40.37
2022-08-02T12:27:23.215Z,39.81
2022-08-02T12:28:23.401Z,39.87
2022-08-02T12:29:56.420Z,40.66
2022-08-02T12:30:27.889Z,39.86
2022-08-02T12:31:23.988Z,39.17
2022-08-02T12:32:24.176Z,39.91
2022-08-02T12:33:24.390Z,40.61
2022-08-02T12:34:31.594Z,40.70
2022-08-02T12:35:26.544Z,40.80
2022-08-02T12:36:25.008Z,40.90
2022-08-02T12:37:25.205Z,41.28
2022-08-02T12:38:25.404Z,39.28
2022-08-02T12:39:29.956Z,40.96
2022-08-02T12:40:26.144Z,39.76
2022-08-02T12:41:31.541Z,39.46
2022-08-02T12:42:26.229Z,39.64
2022-08-02T12:43:26.411Z,40.35
2022-08-02T12:44:26.633Z,40.43
2022-08-02T12:45:26.865Z,39.92
2022-08-02T12:46:27.053Z,39.68
2022-08-02T12:47:35.510Z,38.99
2022-08-02T12:48:27.418Z,39.09
2022-08-02T12:49:27.701Z,39.56
2022-08-02T12:50:27.866Z,39.20
2022-08-02T12:51:56.327Z,40.48
2022-08-02T12:52:28.231Z,39.28
2022-08-02T12:53:28.411Z,39.87
2022-08-02T12:54:31.461Z,38.83
2022-08-02T12:55:59.225Z,39.42
2022-08-02T12:56:29.087Z,39.09